Time;durP1;ratioP1;P1;durP2;ratioP2;P2;SDS_P1;SDS_P2;PMS_P1;PMS_P2;Temp;Humidity;BMP_temperature;BMP_pressure;BME280_temperature;BME280_humidity;BME280_pressure;Samples;Min_cycle;Max_cycle;Signal;HPM_P1;HPM_P2
2021/06/18 00:01:59;;;;;;;40.70;33.48;;;;;;;20.22;49.76;99314.33;2171529;82;20962;-80
2021/06/18 00:05:00;;;;;;;29.95;22.90;;;;;;;20.18;50.33;99316.63;2171519;82;21009;-80
2021/06/18 00:08:01;;;;;;;23.25;17.17;;;;;;;20.33;50.09;99316.77;2171597;82;20921;-82
2021/06/18 00:11:02;;;;;;;26.25;20.82;;;;;;;20.43;49.73;99315.71;2171458;82;20924;-81
2021/06/18 00:14:05;;;;;;;26.15;19.82;;;;;;;20.44;49.62;99317.91;2171368;82;20921;-81
2021/06/18 00:17:05;;;;;;;18.10;14.10;;;;;;;20.46;49.23;99313.45;2171366;82;20901;-80
2021/06/18 00:20:06;;;;;;;10.80;9.75;;;;;;;20.47;49.29;99307.23;2171726;82;20968;-81
2021/06/18 00:23:07;;;;;;;10.72;8.53;;;;;;;20.46;48.93;99298.87;2171207;82;20986;-81
2021/06/18 00:26:08;;;;;;;10.08;7.78;;;;;;;20.44;49.15;99295.38;2170997;82;20945;-80
2021/06/18 00:29:09;;;;;;;8.75;7.83;;;;;;;20.40;49.04;99303.84;2171453;82;21113;-79
2021/06/18 00:32:10;;;;;;;9.28;7.45;;;;;;;20.33;49.23;99303.52;2171266;82;20926;-81
2021/06/18 00:35:11;;;;;;;21.02;16.87;;;;;;;20.27;49.12;99303.19;2171245;82;20921;-80
2021/06/18 00:38:12;;;;;;;8.10;7.30;;;;;;;20.18;49.29;99302.05;2171428;82;20894;-79
2021/06/18 00:41:13;;;;;;;10.75;7.58;;;;;;;20.15;49.32;99299.91;2171374;82;20981;-80
2021/06/18 00:44:14;;;;;;;6.67;6.00;;;;;;;20.10;49.25;99298.67;2171239;82;20941;-81
2021/06/18 00:47:16;;;;;;;10.50;6.55;;;;;;;20.00;49.21;99298.42;2171459;82;20997;-81
2021/06/18 00:50:17;;;;;;;7.05;6.35;;;;;;;19.98;49.42;99295.80;2171681;82;20965;-81
2021/06/18 00:53:18;;;;;;;8.25;7.08;;;;;;;19.95;49.39;99294.98;2171864;82;20941;-80
2021/06/18 00:56:19;;;;;;;7.05;6.40;;;;;;;19.96;49.40;99298.06;2171505;82;20992;-80
2021/06/18 00:59:20;;;;;;;8.88;6.85;;;;;;;19.87;49.51;99289.80;2171473;82;20925;-80
2021/06/18 01:02:21;;;;;;;8.43;6.53;;;;;;;19.77;49.56;99292.20;2171615;82;21001;-79
2021/06/18 01:05:23;;;;;;;7.97;6.58;;;;;;;19.71;49.72;99286.56;2171450;82;21380;-81
2021/06/18 01:08:24;;;;;;;8.28;6.45;;;;;;;19.62;49.85;99283.20;2171400;82;21364;-81
2021/06/18 01:11:25;;;;;;;71.50;59.03;;;;;;;19.58;50.03;99283.70;2171031;82;21008;-81
2021/06/18 01:14:26;;;;;;;136.77;108.72;;;;;;;19.61;50.33;99279.68;2171427;82;20935;-81
2021/06/18 01:17:27;;;;;;;47.35;36.20;;;;;;;19.67;50.24;99278.25;2171658;82;21388;-80
2021/06/18 01:20:31;;;;;;;36.42;30.37;;;;;;;19.73;49.86;99280.78;2171910;82;20956;-80
2021/06/18 01:23:32;;;;;;;25.27;22.35;;;;;;;19.73;49.81;99279.91;2171644;82;20981;-80
2021/06/18 01:26:33;;;;;;;22.25;17.45;;;;;;;19.73;49.77;99269.31;2171315;82;20948;-81
2021/06/18 01:29:34;;;;;;;16.15;14.33;;;;;;;19.72;49.60;99275.52;2171419;82;20992;-81
2021/06/18 01:32:35;;;;;;;17.62;13.43;;;;;;;19.68;49.48;99272.05;2171622;82;20936;-80
2021/06/18 01:35:36;;;;;;;13.40;10.63;;;;;;;19.65;49.46;99269.45;2171480;82;21041;-81
2021/06/18 01:38:39;;;;;;;10.70;9.15;;;;;;;19.60;49.29;99269.12;2171281;82;20945;-80
2021/06/18 01:41:39;;;;;;;12.90;10.23;;;;;;;19.50;49.28;99271.47;2170886;82;20988;-81
2021/06/18 01:44:40;;;;;;;12.43;8.93;;;;;;;19.35;49.64;99273.48;2167514;82;21297;-80
2021/06/18 01:47:41;;;;;;;52.88;14.68;;;;;;;19.36;49.75;99269.05;2160474;82;21364;-80
2021/06/18 01:50:42;;;;;;;10.60;8.95;;;;;;;19.21;49.50;99270.63;2160841;82;20933;-81
2021/06/18 01:53:43;;;;;;;11.38;7.47;;;;;;;19.15;50.07;99268.09;2161071;82;20921;-80
2021/06/18 01:56:44;;;;;;;35.98;11.10;;;;;;;19.19;49.96;99267.14;2160799;82;21409;-80
2021/06/18 01:59:45;;;;;;;25.97;11.95;;;;;;;19.09;49.90;99271.70;2161325;82;21364;-80
2021/06/18 02:02:46;;;;;;;8.45;6.78;;;;;;;18.94;50.03;99273.23;2161181;82;20957;-81
2021/06/18 02:05:47;;;;;;;15.88;11.65;;;;;;;18.79;50.25;99274.33;2160938;82;21452;-81
2021/06/18 02:08:50;;;;;;;68.17;18.25;;;;;;;18.68;50.04;99277.13;2160658;82;20890;-82
2021/06/18 02:11:51;;;;;;;13.28;8.53;;;;;;;18.56;50.63;99285.64;2160686;82;21017;-79
2021/06/18 02:14:52;;;;;;;167.05;22.60;;;;;;;18.52;50.43;99280.84;2160576;82;20921;-80
2021/06/18 02:17:53;;;;;;;29.95;10.08;;;;;;;18.43;50.80;99286.25;2160527;82;21025;-81
2021/06/18 02:20:54;;;;;;;15.53;8.08;;;;;;;18.37;50.99;99273.98;2160722;82;20972;-80
2021/06/18 02:23:55;;;;;;;479.50;360.52;;;;;;;18.60;50.93;99274.13;2160775;82;21341;-80
2021/06/18 02:26:56;;;;;;;143.65;87.30;;;;;;;18.82;50.78;99275.61;2160302;82;21011;-80
2021/06/18 02:29:57;;;;;;;339.25;214.17;;;;;;;18.93;50.33;99271.48;2160588;82;21306;-81
2021/06/18 02:32:58;;;;;;;415.82;278.52;;;;;;;19.02;50.29;99266.92;2161002;82;21000;-80
2021/06/18 02:35:59;;;;;;;328.52;209.30;;;;;;;19.17;49.89;99260.55;2161216;82;20998;-79
2021/06/18 02:39:00;;;;;;;109.80;59.55;;;;;;;19.26;49.76;99265.69;2161276;82;20925;-80
2021/06/18 02:42:01;;;;;;;846.23;572.52;;;;;;;19.31;48.94;99259.88;2161154;81;20941;-80
2021/06/18 02:45:02;;;;;;;88.62;52.40;;;;;;;19.13;49.61;99261.95;2163608;82;21021;-80
2021/06/18 02:48:03;;;;;;;52.35;26.75;;;;;;;19.14;49.71;99262.37;2168701;82;20929;-80
2021/06/18 02:51:04;;;;;;;81.42;20.60;;;;;;;19.16;49.54;99269.84;2168793;82;20992;-80
2021/06/18 02:54:05;;;;;;;16.65;8.23;;;;;;;19.08;49.45;99263.34;2168347;82;21353;-80
2021/06/18 02:57:06;;;;;;;13.88;8.35;;;;;;;18.87;49.88;99273.77;2168468;82;21016;-80
2021/06/18 03:00:07;;;;;;;7.78;6.97;;;;;;;18.87;49.88;99273.77;2168871;82;20926;-81
2021/06/18 03:03:08;;;;;;;7.92;6.10;;;;;;;18.94;50.01;99274.55;2168901;82;20929;-81
2021/06/18 03:06:09;;;;;;;11.22;8.88;;;;;;;19.05;49.84;99272.17;2168681;82;20898;-81
2021/06/18 03:09:10;;;;;;;9.78;7.47;;;;;;;19.05;49.72;99268.20;2168007;82;20929;-80
2021/06/18 03:12:11;;;;;;;10.53;7.87;;;;;;;18.96;49.59;99264.38;2168642;82;21490;-82
2021/06/18 03:15:12;;;;;;;20.85;8.83;;;;;;;18.91;50.13;99267.98;2168543;82;21004;-80
2021/06/18 03:18:13;;;;;;;10.40;7.85;;;;;;;19.01;50.18;99266.50;2167828;82;20921;-80
2021/06/18 03:21:14;;;;;;;19.57;10.13;;;;;;;19.16;50.22;99265.87;2167767;82;20925;-77
2021/06/18 03:24:15;;;;;;;11.83;7.25;;;;;;;19.25;50.04;99262.62;2167529;82;20977;-81
2021/06/18 03:27:16;;;;;;;17.23;7.05;;;;;;;19.38;50.10;99264.16;2167780;82;21028;-80
2021/06/18 03:30:18;;;;;;;9.78;6.80;;;;;;;19.46;49.62;99260.06;2168977;82;20973;-81
2021/06/18 03:33:18;;;;;;;6.70;6.10;;;;;;;19.16;50.02;99258.80;2169401;82;20945;-81
2021/06/18 03:36:26;;;;;;;9.08;6.60;;;;;;;18.86;50.54;99255.28;2168777;82;20986;-81
2021/06/18 03:39:27;;;;;;;13.70;6.67;;;;;;;18.67;51.24;99258.64;2170166;82;20936;-81
2021/06/18 03:42:28;;;;;;;16.12;7.53;;;;;;;18.57;51.74;99257.86;2169593;82;20957;-80
2021/06/18 03:45:29;;;;;;;14.38;7.30;;;;;;;18.48;52.38;99259.31;2170505;82;21006;-81
2021/06/18 03:48:30;;;;;;;688.55;523.92;;;;;;;18.36;52.92;99260.80;2171905;82;21025;-81
2021/06/18 03:51:31;;;;;;;328.15;232.75;;;;;;;18.32;53.49;99263.05;2171597;82;20984;-80
2021/06/18 03:54:35;;;;;;;396.68;285.40;;;;;;;18.58;53.70;99260.94;2171488;82;20993;-81
2021/06/18 03:57:36;;;;;;;680.15;549.58;;;;;;;18.97;53.19;99251.57;2171322;82;21032;-81
2021/06/18 04:00:40;;;;;;;945.88;633.98;;;;;;;19.36;52.46;99259.80;2171489;82;20996;-81
2021/06/18 04:03:40;;;;;;;235.90;155.35;;;;;;;19.66;52.02;99261.94;2170398;82;20901;-82
2021/06/18 04:06:42;;;;;;;377.70;260.98;;;;;;;19.96;51.56;99254.34;2170245;82;21380;-79
2021/06/18 04:09:43;;;;;;;86.63;49.08;;;;;;;20.23;51.10;99258.22;2170485;82;21025;-79
2021/06/18 04:12:44;;;;;;;682.33;530.98;;;;;;;20.38;50.77;99253.92;2170148;82;20925;-81
2021/06/18 04:15:47;;;;;;;717.95;518.25;;;;;;;20.67;50.46;99265.25;2169941;82;21036;-80
2021/06/18 04:18:48;;;;;;;303.85;161.32;;;;;;;21.03;49.86;99274.18;2170176;82;20982;-80
2021/06/18 04:21:49;;;;;;;98.22;57.62;;;;;;;21.34;49.43;99278.33;2170258;82;21302;-80
2021/06/18 04:24:50;;;;;;;637.65;495.18;;;;;;;21.50;49.21;99268.19;2169886;82;20988;-80
2021/06/18 04:27:51;;;;;;;25.35;16.02;;;;;;;21.53;48.56;99262.34;2169749;82;21340;-79
2021/06/18 04:30:52;;;;;;;9.20;4.78;;;;;;;21.55;48.46;99260.97;2170257;82;20968;-80
2021/06/18 04:33:56;;;;;;;6.55;4.97;;;;;;;21.59;48.28;99267.49;2170322;82;20918;-81
2021/06/18 04:36:57;;;;;;;6.17;4.80;;;;;;;21.81;47.72;99261.64;2170482;82;20940;-80
2021/06/18 04:39:58;;;;;;;8.05;5.08;;;;;;;21.99;47.27;99262.47;2170051;82;21384;-80
2021/06/18 04:42:59;;;;;;;131.03;18.82;;;;;;;22.02;47.34;99264.17;2169671;82;21025;-81
2021/06/18 04:46:00;;;;;;;390.77;306.27;;;;;;;22.13;47.49;99261.66;2169765;82;20984;-80
2021/06/18 04:49:01;;;;;;;348.18;257.77;;;;;;;22.08;47.27;99268.89;2170087;82;20971;-80
2021/06/18 04:52:02;;;;;;;114.97;75.67;;;;;;;22.36;46.94;99257.47;2169968;82;21016;-81
2021/06/18 04:55:03;;;;;;;10.63;6.25;;;;;;;22.57;46.45;99254.20;2169976;82;21380;-81
2021/06/18 04:58:04;;;;;;;8.05;5.90;;;;;;;22.72;46.15;99263.05;2170137;81;21052;-80
2021/06/18 05:01:05;;;;;;;13.28;7.75;;;;;;;22.76;45.87;99266.02;2169913;82;20996;-81
2021/06/18 05:04:06;;;;;;;23.70;6.05;;;;;;;22.82;46.04;99275.64;2170796;82;20980;-79
2021/06/18 05:07:08;;;;;;;14.23;5.45;;;;;;;22.98;46.70;99268.91;2170574;82;21424;-80
2021/06/18 05:10:09;;;;;;;14.78;6.20;;;;;;;23.34;46.93;99272.17;2170243;82;20937;-82
2021/06/18 05:13:11;;;;;;;9.08;5.78;;;;;;;23.67;45.41;99272.90;2170588;82;21390;-81
2021/06/18 05:16:12;;;;;;;15.05;5.80;;;;;;;23.85;45.79;99264.72;2170270;82;20972;-80
2021/06/18 05:19:13;;;;;;;15.32;6.03;;;;;;;23.89;45.78;99262.35;2170519;82;20913;-81
2021/06/18 05:22:17;;;;;;;15.03;6.20;;;;;;;24.14;45.61;99267.21;2170630;82;21272;-81
2021/06/18 05:25:18;;;;;;;8.25;5.40;;;;;;;24.37;44.96;99275.77;2170289;82;20964;-82
2021/06/18 05:28:21;;;;;;;7.90;5.65;;;;;;;24.51;44.67;99271.23;2170344;82;21338;-81
2021/06/18 05:31:22;;;;;;;8.78;5.78;;;;;;;24.61;44.33;99269.96;2170339;82;21025;-81
2021/06/18 05:34:23;;;;;;;9.25;5.75;;;;;;;24.64;44.09;99272.52;2170970;82;20953;-81
2021/06/18 05:37:24;;;;;;;10.50;5.95;;;;;;;24.70;44.01;99266.94;2170205;82;20940;-80
2021/06/18 05:40:24;;;;;;;8.55;5.78;;;;;;;24.88;44.17;99269.81;2170396;82;20956;-81
2021/06/18 05:43:26;;;;;;;26.10;7.70;;;;;;;25.02;44.00;99271.50;2170093;82;20977;-81
2021/06/18 05:46:27;;;;;;;212.40;25.23;;;;;;;25.11;43.02;99280.48;2170434;82;20977;-81
2021/06/18 05:49:28;;;;;;;11.70;5.78;;;;;;;25.16;43.65;99275.86;2170348;82;20930;-81
2021/06/18 05:52:29;;;;;;;26.48;7.15;;;;;;;25.17;43.14;99269.58;2170268;82;20972;-81
2021/06/18 05:55:30;;;;;;;15.70;5.80;;;;;;;25.17;43.53;99276.26;2170351;82;20973;-82
2021/06/18 05:58:31;;;;;;;10.55;5.33;;;;;;;25.27;43.92;99277.63;2169865;82;20960;-81
2021/06/18 06:01:32;;;;;;;11.53;6.10;;;;;;;25.37;42.90;99277.64;2169950;82;20942;-81
2021/06/18 06:04:34;;;;;;;7.62;5.97;;;;;;;25.33;43.98;99274.70;2170527;82;21129;-80
2021/06/18 06:07:35;;;;;;;9.73;5.70;;;;;;;25.45;43.68;99269.77;2170122;82;20905;-80
2021/06/18 06:10:36;;;;;;;7.78;5.72;;;;;;;25.61;43.44;99267.73;2170248;82;20972;-82
2021/06/18 06:13:38;;;;;;;12.90;6.10;;;;;;;25.71;42.89;99270.91;2170025;82;20937;-79
2021/06/18 06:16:42;;;;;;;10.45;6.50;;;;;;;25.78;42.76;99279.06;2170214;82;20925;-81
2021/06/18 06:19:43;;;;;;;14.58;5.47;;;;;;;25.75;42.95;99281.00;2170442;82;20984;-81
2021/06/18 06:22:44;;;;;;;15.25;5.78;;;;;;;25.83;43.53;99275.72;2169850;82;21032;-81
2021/06/18 06:25:46;;;;;;;13.60;6.12;;;;;;;25.90;43.64;99273.66;2170082;82;20993;-79
2021/06/18 06:28:49;;;;;;;7.67;6.42;;;;;;;26.06;43.46;99277.42;2169980;82;21395;-78
2021/06/18 06:31:51;;;;;;;10.43;5.28;;;;;;;26.16;43.26;99269.86;2170182;82;20984;-81
2021/06/18 06:34:52;;;;;;;18.60;6.97;;;;;;;26.28;42.58;99273.31;2170379;82;20988;-82
2021/06/18 06:37:53;;;;;;;7.50;5.10;;;;;;;26.17;42.31;99275.14;2169908;82;21424;-81
2021/06/18 06:40:54;;;;;;;7.42;5.35;;;;;;;26.12;42.10;99277.63;2170350;82;20989;-79
2021/06/18 06:43:56;;;;;;;10.93;5.60;;;;;;;26.12;42.49;99273.61;2170159;82;21315;-80
2021/06/18 06:46:57;;;;;;;12.37;6.00;;;;;;;26.38;42.37;99272.47;2170020;82;20988;-82
2021/06/18 06:49:58;;;;;;;11.85;6.28;;;;;;;26.60;42.12;99276.75;2170028;82;21399;-80
2021/06/18 06:52:59;;;;;;;17.75;6.35;;;;;;;26.80;42.01;99277.63;2170245;82;21185;-82
2021/06/18 06:56:00;;;;;;;6.92;5.80;;;;;;;26.98;41.85;99278.63;2170292;82;21340;-81
2021/06/18 06:59:01;;;;;;;7.45;5.83;;;;;;;26.92;41.18;99272.59;2170334;82;20940;-80
2021/06/18 07:02:02;;;;;;;8.95;5.92;;;;;;;26.91;41.22;99271.32;2170044;82;21044;-78
2021/06/18 07:05:03;;;;;;;9.90;6.10;;;;;;;27.02;41.17;99266.82;2169624;82;20972;-80
2021/06/18 07:08:04;;;;;;;5.95;5.37;;;;;;;27.00;41.00;99261.53;2170241;82;20917;-81
2021/06/18 07:11:05;;;;;;;11.08;6.37;;;;;;;27.23;41.42;99271.13;2170622;82;21000;-81
2021/06/18 07:14:08;;;;;;;11.40;5.92;;;;;;;27.47;41.43;99270.37;2170483;82;21386;-80
2021/06/18 07:23:17;;;;;;;17.05;5.58;;;;;;;27.65;40.77;99268.14;2147439;82;21284;-80
2021/06/18 07:26:17;;;;;;;12.45;6.30;;;;;;;27.67;40.20;99263.56;2170007;82;20940;-79
2021/06/18 07:32:24;;;;;;;8.08;5.47;;;;;;;27.75;39.78;99270.77;2124200;82;20980;-81
2021/06/18 07:35:25;;;;;;;9.85;5.30;;;;;;;27.87;40.04;99266.12;2170455;82;20977;-80
2021/06/18 07:38:27;;;;;;;10.20;4.92;;;;;;;27.81;39.30;99258.39;2170467;82;20984;-81
2021/06/18 07:41:29;;;;;;;8.43;4.90;;;;;;;27.87;39.33;99257.20;2170271;82;21041;-80
2021/06/18 07:44:31;;;;;;;6.72;5.17;;;;;;;27.79;39.43;99254.92;2170419;82;21345;-81
2021/06/18 07:47:32;;;;;;;8.67;5.40;;;;;;;27.90;39.67;99253.88;2170222;82;21348;-76
2021/06/18 07:50:33;;;;;;;10.90;5.55;;;;;;;27.94;39.09;99254.59;2169856;82;20933;-80
2021/06/18 07:53:35;;;;;;;7.22;5.62;;;;;;;28.01;38.69;99251.98;2170209;82;21321;-80
2021/06/18 07:56:42;;;;;;;7.33;5.70;;;;;;;28.13;38.62;99251.80;2170104;82;21004;-80
2021/06/18 07:59:39;;;;;;;8.80;5.00;;;;;;;28.16;38.30;99251.64;2169041;82;21008;-79
2021/06/18 08:02:41;;;;;;;6.20;5.08;;;;;;;28.18;38.66;99251.08;2170161;82;20944;-79
2021/06/18 08:05:42;;;;;;;8.25;5.55;;;;;;;28.26;38.56;99247.54;2169861;82;20961;-80
2021/06/18 08:08:43;;;;;;;7.75;5.12;;;;;;;28.30;39.05;99246.90;2170498;82;20929;-79
2021/06/18 08:11:45;;;;;;;5.40;4.50;;;;;;;28.40;38.08;99246.31;2170050;82;20937;-79
2021/06/18 08:14:47;;;;;;;9.15;5.40;;;;;;;28.60;38.24;99243.01;2170454;82;20913;-78
2021/06/18 08:17:49;;;;;;;8.73;5.55;;;;;;;28.73;38.17;99237.38;2170128;82;20985;-80
2021/06/18 08:20:50;;;;;;;8.35;5.72;;;;;;;28.66;38.32;99237.33;2170486;82;20917;-80
2021/06/18 08:23:51;;;;;;;6.20;5.00;;;;;;;28.75;38.13;99232.78;2170544;82;21040;-80
2021/06/18 08:26:52;;;;;;;8.28;5.33;;;;;;;28.71;37.59;99233.44;2170146;82;21045;-81
2021/06/18 08:29:53;;;;;;;11.30;5.58;;;;;;;28.86;37.45;99233.08;2170280;82;21024;-80
2021/06/18 08:32:54;;;;;;;5.58;5.08;;;;;;;29.01;37.20;99238.06;2169696;82;20976;-81
2021/06/18 08:35:55;;;;;;;5.92;5.25;;;;;;;29.08;37.03;99233.59;2170274;82;21004;-80
2021/06/18 08:38:56;;;;;;;9.00;5.35;;;;;;;29.15;37.02;99237.65;2169554;82;20973;-81
2021/06/18 08:41:57;;;;;;;9.30;5.60;;;;;;;29.05;36.25;99242.30;2169839;82;20928;-79
2021/06/18 08:44:58;;;;;;;5.83;5.17;;;;;;;29.11;36.04;99233.89;2170223;82;20968;-80
2021/06/18 08:47:59;;;;;;;8.03;5.22;;;;;;;29.14;35.34;99245.33;2161730;82;20993;-80
2021/06/18 08:51:00;;;;;;;8.05;5.72;;;;;;;29.17;36.07;99236.22;2160138;82;21022;-82
2021/06/18 08:54:01;;;;;;;5.87;5.37;;;;;;;29.28;36.45;99239.15;2159920;82;20926;-81
2021/06/18 08:57:02;;;;;;;7.33;5.25;;;;;;;29.35;36.59;99239.18;2160061;82;21007;-80
2021/06/18 09:00:05;;;;;;;6.15;5.40;;;;;;;29.37;36.57;99237.27;2160009;82;21028;-80
2021/06/18 09:03:06;;;;;;;6.37;5.80;;;;;;;29.59;36.48;99232.89;2159920;82;21356;-79
2021/06/18 09:06:09;;;;;;;10.93;5.60;;;;;;;29.63;35.78;99238.47;2159968;82;21041;-79
2021/06/18 09:12:15;;;;;;;22.98;7.92;;;;;;;29.77;35.08;99226.88;2139584;82;20430;-78
2021/06/18 09:15:17;;;;;;;17.27;7.17;;;;;;;29.79;34.42;99228.52;2159397;82;21396;-78
2021/06/18 09:18:18;;;;;;;17.27;6.58;;;;;;;29.79;34.49;99228.52;2159870;82;20961;-76
2021/06/18 09:21:19;;;;;;;19.95;6.42;;;;;;;29.90;34.89;99231.04;2159830;82;21277;-79
2021/06/18 09:24:20;;;;;;;19.25;7.37;;;;;;;29.98;34.70;99232.78;2159841;82;20949;-80
2021/06/18 09:27:21;;;;;;;13.55;6.10;;;;;;;30.11;35.02;99229.75;2159823;81;21384;-80
2021/06/18 09:30:22;;;;;;;9.10;5.50;;;;;;;30.16;34.29;99230.33;2159893;82;20941;-81
2021/06/18 09:33:26;;;;;;;6.90;5.60;;;;;;;30.28;32.85;99221.48;2159799;82;21029;-80
2021/06/18 09:36:25;;;;;;;10.48;5.78;;;;;;;30.23;32.96;99218.70;2160071;82;20973;-79
2021/06/18 09:39:26;;;;;;;11.00;5.75;;;;;;;30.34;33.72;99221.09;2159501;82;21336;-79
2021/06/18 09:42:27;;;;;;;8.83;5.67;;;;;;;30.27;33.81;99210.33;2159570;82;20944;-81
2021/06/18 09:45:28;;;;;;;13.35;5.85;;;;;;;30.33;33.86;99208.59;2159955;82;21333;-79
2021/06/18 09:48:29;;;;;;;8.10;5.90;;;;;;;30.14;33.44;99199.95;2159150;82;21498;-78
2021/06/18 09:51:30;;;;;;;15.50;5.58;;;;;;;30.08;33.95;99214.66;2159640;82;21024;-78
2021/06/18 09:54:31;;;;;;;12.47;5.47;;;;;;;30.10;33.97;99207.83;2159446;82;20970;-79
2021/06/18 09:57:33;;;;;;;8.13;5.80;;;;;;;30.06;33.59;99208.98;2159402;81;21444;-80
2021/06/18 10:00:34;;;;;;;11.10;6.67;;;;;;;30.13;33.39;99200.91;2158993;82;20977;-79
2021/06/18 10:03:35;;;;;;;7.87;5.72;;;;;;;30.22;32.95;99192.73;2159712;82;21345;-79
2021/06/18 10:06:35;;;;;;;8.15;5.35;;;;;;;30.24;32.95;99196.20;2159712;82;20978;-80
2021/06/18 10:09:37;;;;;;;6.83;5.22;;;;;;;30.18;33.04;99193.89;2159851;82;21369;-80
2021/06/18 10:12:38;;;;;;;8.38;5.83;;;;;;;30.26;33.11;99191.09;2159491;82;21440;-79
2021/06/18 10:15:39;;;;;;;15.60;5.75;;;;;;;30.33;33.60;99188.40;2160169;82;21357;-78
2021/06/18 10:18:43;;;;;;;10.53;6.10;;;;;;;30.35;33.80;99190.55;2159959;82;21381;-81
2021/06/18 10:21:45;;;;;;;22.67;6.05;;;;;;;30.56;33.27;99188.78;2160023;82;20997;-80
2021/06/18 10:24:45;;;;;;;8.00;5.40;;;;;;;30.39;31.67;99196.13;2160443;82;20952;-80
2021/06/18 10:27:46;;;;;;;8.80;5.20;;;;;;;30.34;32.33;99198.69;2160248;82;21039;-81
2021/06/18 10:30:47;;;;;;;9.98;5.17;;;;;;;30.53;32.02;99197.06;2159791;82;20945;-81
2021/06/18 10:33:49;;;;;;;13.58;5.20;;;;;;;30.61;32.42;99188.91;2158978;82;20986;-80
2021/06/18 10:36:50;;;;;;;11.35;5.15;;;;;;;30.67;31.57;99192.55;2159967;82;20929;-79
2021/06/18 10:39:51;;;;;;;10.43;5.30;;;;;;;30.91;32.02;99186.03;2159926;82;20949;-76
2021/06/18 10:42:52;;;;;;;9.70;5.72;;;;;;;30.86;31.00;99184.13;2159865;82;20968;-80
2021/06/18 10:45:53;;;;;;;8.38;5.65;;;;;;;30.92;31.44;99193.16;2160097;82;21001;-79
2021/06/18 10:48:55;;;;;;;7.00;5.00;;;;;;;31.01;30.82;99179.06;2160159;82;20933;-78
2021/06/18 10:51:56;;;;;;;6.53;4.87;;;;;;;30.95;30.69;99182.17;2159990;82;21067;-78
2021/06/18 10:54:58;;;;;;;11.35;5.85;;;;;;;31.00;31.37;99180.52;2160049;82;21009;-78
2021/06/18 10:57:59;;;;;;;9.80;5.33;;;;;;;30.90;30.78;99180.27;2160099;82;21400;-79
2021/06/18 11:01:00;;;;;;;11.73;5.83;;;;;;;31.05;30.94;99177.89;2159989;82;20941;-77
2021/06/18 11:04:01;;;;;;;14.18;4.95;;;;;;;31.15;30.98;99174.61;2160016;82;20930;-79
2021/06/18 11:07:02;;;;;;;7.20;4.70;;;;;;;31.21;30.24;99172.85;2159982;82;20927;-79
2021/06/18 11:10:03;;;;;;;11.68;5.25;;;;;;;31.30;29.83;99162.34;2160032;82;20947;-78
2021/06/18 11:13:04;;;;;;;11.38;4.83;;;;;;;31.15;29.96;99165.18;2159666;82;21153;-78
2021/06/18 11:16:07;;;;;;;16.32;5.37;;;;;;;31.11;28.98;99167.19;2159597;82;20980;-79
2021/06/18 11:19:08;;;;;;;8.28;4.60;;;;;;;31.22;28.89;99173.27;2159905;82;20901;-79
2021/06/18 11:22:09;;;;;;;7.53;4.62;;;;;;;31.23;28.82;99161.52;2159426;82;20988;-78
2021/06/18 11:25:10;;;;;;;8.23;4.40;;;;;;;31.03;28.10;99160.95;2159786;82;20949;-79
2021/06/18 11:28:11;;;;;;;30.62;6.45;;;;;;;31.06;27.75;99162.09;2159825;82;21056;-79
2021/06/18 11:31:20;;;;;;;10.25;4.80;;;;;;;31.53;27.33;99153.16;2159724;82;20992;-79
2021/06/18 11:34:18;;;;;;;8.10;4.55;;;;;;;31.72;27.13;99159.52;2158938;82;20987;-78
2021/06/18 11:37:19;;;;;;;6.05;3.92;;;;;;;31.50;27.40;99149.32;2159655;82;20985;-77
2021/06/18 11:40:20;;;;;;;4.45;3.58;;;;;;;31.75;26.22;99148.51;2159823;82;20992;-77
2021/06/18 11:43:21;;;;;;;16.35;5.15;;;;;;;31.77;26.55;99150.61;2159943;82;20932;-79
2021/06/18 11:46:22;;;;;;;6.95;4.33;;;;;;;31.96;26.52;99145.64;2159551;82;20997;-78
2021/06/18 11:49:24;;;;;;;4.83;4.33;;;;;;;32.16;25.91;99147.81;2159080;82;21305;-78
2021/06/18 11:52:25;;;;;;;6.20;4.90;;;;;;;32.27;26.48;99137.13;2158854;82;21536;-80
2021/06/18 11:55:26;;;;;;;4.80;4.30;;;;;;;32.48;26.97;99148.20;2159691;82;21365;-80
2021/06/18 11:58:27;;;;;;;12.47;4.22;;;;;;;32.38;26.32;99150.34;2159615;82;21043;-79
2021/06/18 12:01:31;;;;;;;5.92;3.70;;;;;;;32.38;26.32;99150.34;2159780;82;21348;-80
2021/06/18 12:04:33;;;;;;;15.55;5.12;;;;;;;32.66;25.13;99139.72;2159895;82;20981;-80
2021/06/18 12:07:34;;;;;;;9.05;5.12;;;;;;;32.50;25.97;99147.61;2159783;82;20980;-78
2021/06/18 12:10:37;;;;;;;6.78;4.33;;;;;;;32.27;26.90;99130.38;2138048;82;21317;-81
2021/06/18 12:13:38;;;;;;;8.93;4.53;;;;;;;31.81;27.63;99129.18;2159834;82;20956;-78
2021/06/18 12:16:39;;;;;;;7.12;4.10;;;;;;;31.56;27.80;99131.36;2159553;82;21024;-77
2021/06/18 12:19:48;;;;;;;5.28;4.05;;;;;;;31.64;25.96;99128.98;2159813;82;20918;-80
2021/06/18 12:22:45;;;;;;;4.28;3.87;;;;;;;32.07;25.83;99121.44;2159028;82;20898;-79
2021/06/18 12:25:50;;;;;;;4.87;3.98;;;;;;;32.15;26.04;99125.83;2160179;82;20965;-79
2021/06/18 12:28:49;;;;;;;4.85;3.62;;;;;;;32.01;26.64;99117.83;2159728;82;21349;-78
2021/06/18 12:31:50;;;;;;;5.40;3.85;;;;;;;32.38;25.33;99120.62;2160047;82;20980;-79
2021/06/18 12:34:51;;;;;;;6.90;4.70;;;;;;;32.86;25.14;99119.72;2160006;82;20976;-78
2021/06/18 12:37:52;;;;;;;9.60;4.15;;;;;;;33.12;25.17;99115.06;2160094;82;20948;-77
2021/06/18 12:40:53;;;;;;;16.73;5.00;;;;;;;33.22;25.38;99119.28;2159824;82;21013;-79
2021/06/18 12:43:55;;;;;;;7.45;4.35;;;;;;;33.40;25.48;99124.66;2160196;82;20957;-81
2021/06/18 12:46:56;;;;;;;6.00;3.73;;;;;;;33.41;26.33;99115.55;2162288;82;21455;-79
2021/06/18 12:49:57;;;;;;;9.50;4.60;;;;;;;33.65;25.61;99110.55;2169990;82;20937;-78
2021/06/18 12:52:58;;;;;;;11.68;4.67;;;;;;;32.70;25.89;99107.43;2169900;82;21328;-78
2021/06/18 12:55:59;;;;;;;9.03;4.80;;;;;;;32.70;25.89;99107.43;2170038;82;20933;-78
2021/06/18 12:59:00;;;;;;;7.30;4.10;;;;;;;32.41;26.68;99108.25;2169740;82;21324;-78
2021/06/18 13:02:01;;;;;;;4.35;3.95;;;;;;;32.16;27.18;99111.84;2169626;82;20941;-77
2021/06/18 13:05:02;;;;;;;10.82;4.40;;;;;;;31.94;26.57;99095.81;2169518;82;21374;-78
2021/06/18 13:08:08;;;;;;;12.70;4.83;;;;;;;31.94;26.57;99095.81;2169624;82;20948;-77
2021/06/18 13:11:07;;;;;;;9.85;4.25;;;;;;;31.89;26.30;99104.72;2169229;82;20944;-78
2021/06/18 13:14:08;;;;;;;6.05;4.87;;;;;;;31.85;26.39;99106.40;2170124;82;20964;-78
2021/06/18 13:17:10;;;;;;;15.58;5.30;;;;;;;32.04;26.55;99105.94;2170039;82;20941;-77
2021/06/18 13:20:11;;;;;;;12.00;5.25;;;;;;;32.06;26.52;99104.86;2169819;82;20952;-78
2021/06/18 13:23:13;;;;;;;14.87;5.67;;;;;;;31.81;26.62;99097.66;2169371;82;20937;-78
2021/06/18 13:26:14;;;;;;;7.70;4.78;;;;;;;31.88;26.37;99098.08;2169418;82;20937;-78
2021/06/18 13:29:15;;;;;;;7.35;4.60;;;;;;;31.88;26.30;99096.73;2169617;82;20987;-77
2021/06/18 13:32:16;;;;;;;5.40;4.42;;;;;;;31.87;26.36;99089.61;2169891;82;20972;-78
2021/06/18 13:35:18;;;;;;;4.47;4.08;;;;;;;31.74;27.08;99087.41;2169821;82;20928;-79
2021/06/18 13:38:19;;;;;;;9.13;4.58;;;;;;;31.87;27.19;99094.52;2169776;82;20963;-77
2021/06/18 13:41:20;;;;;;;13.10;5.20;;;;;;;32.05;27.32;99086.94;2169973;82;20925;-79
2021/06/18 13:44:21;;;;;;;9.38;4.42;;;;;;;32.22;27.27;99092.00;2169946;82;21325;-78
2021/06/18 13:47:22;;;;;;;6.12;4.28;;;;;;;32.02;26.80;99084.94;2170052;80;21028;-80
2021/06/18 13:50:23;;;;;;;4.70;3.83;;;;;;;32.10;27.55;99088.84;2170362;82;20929;-79
2021/06/18 13:53:24;;;;;;;14.65;4.42;;;;;;;32.61;27.53;99088.72;2170082;82;20964;-80
2021/06/18 13:56:25;;;;;;;25.40;5.10;;;;;;;33.09;27.16;99086.04;2170323;82;21142;-80
2021/06/18 13:59:26;;;;;;;50.65;8.53;;;;;;;33.51;25.63;99085.44;2169919;82;21446;-79
2021/06/18 14:02:26;;;;;;;31.85;7.67;;;;;;;33.85;24.25;99078.77;2170142;82;20921;-77
2021/06/18 14:05:27;;;;;;;6.67;4.28;;;;;;;33.96;25.24;99078.77;2170298;82;20913;-80
2021/06/18 14:08:28;;;;;;;5.80;3.92;;;;;;;34.12;25.57;99083.80;2170081;82;20918;-79
2021/06/18 14:11:29;;;;;;;3.77;3.47;;;;;;;34.27;25.33;99076.27;2170250;82;20945;-80
2021/06/18 14:14:38;;;;;;;3.70;3.40;;;;;;;34.34;25.07;99074.32;2170099;82;21008;-80
2021/06/18 14:17:33;;;;;;;;;;;;;;;34.38;24.86;99074.92;2171667;82;20971;-79